Portada
METAR-TAF:

METAR-TAF

Aeroports :

Piney Island, Carolina del Nord, Estats Units d'Amèrica

latitud: 35-01-20N, longitud: 076-27-45W, altitud: 5 m

Observació

L'informe es va fer fa 49 minuts, a les 02:56 UTC
Vent 4 kt del Nord/Nord-Oest
Temperatura 11°C
Humitat 71%
Pressió 1023 hPa
Visibilitat: 16.1 km
Cel clar

METAR: KNBT 210256Z AUTO 33004KT 10SM CLR 11/06 A3020 RMK AO2 SLP231 T01060056 51014 $

Hora: 22:45 (03:45 UTC)


TAF: manca

Observacions i pronòstics meteorològics de més de 4000 aeroports (METAR i TAF).

Les estacions disponibles són els punts grocs i vermells al mapa.

Posi el ratolí al punt desitjat per veure el nom de l'estació.

Feu clic per veure les observacions i els pronòstics meteorològics.

Per canviar el mapa: feu clic els botons verds amb una creu de color negre per apropar; al botó verd amb un guió per allunyar la imatge; o en les fletxes verdes per a mapes adjacents.


METAR-TAF: